Zedelgem, Belgium
Current Conditions -  °F | °C
As of 12:20 PM on Saturday 22 Nov 2014 (Local Time) from EBOS Reporting Station
Clear Clear  
Wind Chill: 54°   Ceiling: Unl
Heat Index: 54°   Visibility: 6mi
Dew Point: 48°   Wind: 9mph
Humidity: 82%   Direction: 180°S
Pressure: 29.97"   Gusts: NA
Location:  51.14°N, 3.14°E
Report Text: EBOS 221120Z 18008KT 9000 NSC 12/09 Q1015 NOSIG
Loading
Personal Weather Stations






























Interactive Weather Map New forecast layout! Learn more

10-Day Weather Forecast

Advertisements
Track Severe Weather on mobile